createdAt,value
2022-11-16T00:02:35.813Z,3.78
2022-11-16T00:06:37.747Z,4.05
2022-11-16T00:10:40.869Z,4.72
2022-11-16T00:14:42.270Z,4.20
2022-11-16T00:18:44.486Z,4.00
2022-11-16T00:22:45.954Z,4.75
2022-11-16T00:26:48.032Z,4.38
2022-11-16T00:30:58.189Z,4.70
2022-11-16T00:34:59.622Z,4.45
2022-11-16T00:39:01.085Z,4.70
2022-11-16T00:43:02.471Z,4.18
2022-11-16T00:47:04.184Z,4.18
2022-11-16T00:51:05.866Z,4.63
2022-11-16T00:55:07.959Z,4.07
2022-11-16T00:59:09.593Z,3.92
2022-11-16T01:03:11.373Z,4.63
2022-11-16T01:07:12.896Z,4.50
2022-11-16T01:11:34.573Z,4.32
2022-11-16T01:15:36.878Z,4.60
2022-11-16T01:19:39.061Z,4.88
2022-11-16T01:23:40.510Z,4.35
2022-11-16T01:27:42.985Z,5.53
2022-11-16T01:31:44.481Z,5.18
2022-11-16T01:35:46.085Z,4.70
2022-11-16T01:39:49.654Z,5.10
2022-11-16T01:43:58.302Z,4.28
2022-11-16T01:47:59.852Z,4.95
2022-11-16T01:52:05.041Z,4.75
2022-11-16T01:56:08.387Z,3.63
2022-11-16T02:00:14.537Z,4.10
2022-11-16T02:04:15.978Z,4.05
2022-11-16T02:09:08.690Z,3.63
2022-11-16T02:13:28.816Z,4.60
2022-11-16T02:17:39.320Z,3.13
2022-11-16T02:21:50.223Z,3.88
2022-11-16T02:26:29.700Z,3.35
2022-11-16T02:30:31.433Z,4.40
2022-11-16T02:34:37.800Z,3.53
2022-11-16T02:38:43.087Z,3.95
2022-11-16T02:42:52.797Z,4.05
2022-11-16T02:46:58.696Z,3.22
2022-11-16T02:51:00.215Z,3.60
2022-11-16T02:55:01.632Z,3.50
2022-11-16T02:59:03.250Z,2.95
2022-11-16T03:03:28.533Z,3.05
2022-11-16T03:07:33.492Z,2.60
2022-11-16T03:11:55.341Z,2.80
2022-11-16T03:15:57.469Z,2.40
2022-11-16T03:20:14.411Z,3.28
2022-11-16T03:24:16.409Z,3.07
2022-11-16T03:28:23.764Z,2.72
2022-11-16T03:32:46.702Z,2.88
2022-11-16T03:36:50.035Z,2.28
2022-11-16T03:40:52.248Z,2.60
2022-11-16T03:44:54.272Z,2.55
2022-11-16T03:48:58.042Z,2.70
2022-11-16T03:52:59.888Z,1.98
2022-11-16T03:57:01.502Z,2.85
2022-11-16T04:01:03.852Z,2.20
2022-11-16T04:05:24.384Z,2.17
2022-11-16T04:09:44.436Z,2.30
2022-11-16T04:14:09.119Z,1.85
2022-11-16T04:18:29.336Z,2.95
2022-11-16T04:23:01.356Z,2.03
2022-11-16T04:27:25.319Z,2.10
2022-11-16T04:31:45.670Z,2.45
2022-11-16T04:36:05.846Z,2.15
2022-11-16T04:40:08.532Z,2.17
2022-11-16T04:44:10.135Z,2.30
2022-11-16T04:48:12.231Z,2.67
2022-11-16T04:52:13.684Z,2.67
2022-11-16T04:56:15.189Z,2.70
2022-11-16T05:00:17.384Z,2.28
2022-11-16T05:04:19.380Z,2.70
2022-11-16T05:08:20.903Z,2.60
2022-11-16T05:12:24.514Z,2.58
2022-11-16T05:16:26.171Z,2.67
2022-11-16T05:20:46.453Z,2.22
2022-11-16T05:24:48.082Z,2.38
2022-11-16T05:28:49.558Z,1.80
2022-11-16T05:32:51.071Z,2.50
2022-11-16T05:36:52.595Z,2.13
2022-11-16T05:40:54.702Z,2.22
2022-11-16T05:44:56.304Z,2.55
2022-11-16T05:48:57.776Z,2.40
2022-11-16T05:53:00.702Z,2.40
2022-11-16T05:57:02.296Z,2.85
2022-11-16T06:01:04.326Z,2.22
2022-11-16T06:05:05.967Z,2.55
2022-11-16T06:09:09.686Z,2.42
2022-11-16T06:13:11.137Z,2.65
2022-11-16T06:17:14.715Z,2.83
2022-11-16T06:21:18.384Z,3.30
2022-11-16T06:25:20.215Z,3.72
2022-11-16T06:29:21.813Z,3.20
2022-11-16T06:33:23.872Z,3.65
2022-11-16T06:37:25.811Z,3.05
2022-11-16T06:41:27.315Z,2.88
2022-11-16T06:45:29.777Z,3.08
2022-11-16T06:49:31.266Z,2.85
2022-11-16T06:53:32.937Z,2.97
2022-11-16T06:57:35.859Z,2.90
2022-11-16T07:01:38.608Z,3.05
2022-11-16T07:05:42.087Z,3.42
2022-11-16T07:09:45.033Z,2.55
2022-11-16T07:13:46.848Z,2.85
2022-11-16T07:17:48.272Z,2.03
2022-11-16T07:21:49.717Z,2.60
2022-11-16T07:25:51.222Z,1.60
2022-11-16T07:29:52.776Z,1.42
2022-11-16T07:33:54.494Z,1.58
2022-11-16T07:37:55.908Z,1.02
2022-11-16T07:41:57.582Z,0.90
2022-11-16T07:46:44.829Z,0.82
2022-11-16T07:50:27.504Z,0.80
2022-11-16T07:54:29.080Z,0.88
2022-11-16T07:58:33.525Z,0.70
2022-11-16T08:02:35.362Z,0.90
2022-11-16T08:06:37.179Z,0.80
2022-11-16T08:10:39.126Z,0.80
2022-11-16T08:14:40.689Z,0.75
2022-11-16T08:18:42.684Z,1.00
2022-11-16T08:22:45.194Z,0.82
2022-11-16T08:26:46.671Z,0.95
2022-11-16T08:30:53.660Z,0.85
2022-11-16T08:34:56.710Z,0.85
2022-11-16T08:38:58.347Z,1.23
2022-11-16T08:43:00.013Z,0.93
2022-11-16T08:47:01.490Z,0.82
2022-11-16T08:51:17.443Z,0.82
2022-11-16T08:55:20.387Z,0.70
2022-11-16T08:59:22.025Z,0.60
2022-11-16T09:03:23.594Z,0.80
2022-11-16T09:07:25.367Z,0.90
2022-11-16T09:11:27.253Z,0.80
2022-11-16T09:15:28.872Z,1.02
2022-11-16T09:19:30.414Z,11.27
2022-11-16T09:23:32.032Z,0.80
2022-11-16T09:27:33.665Z,0.93
2022-11-16T09:31:37.231Z,0.73
2022-11-16T09:35:39.210Z,0.90
2022-11-16T09:39:40.814Z,1.10
2022-11-16T09:44:06.306Z,0.85
2022-11-16T09:48:12.385Z,0.77
2022-11-16T09:52:38.694Z,0.70
2022-11-16T09:56:42.053Z,1.00
2022-11-16T10:00:47.902Z,0.90
2022-11-16T10:05:12.263Z,1.00
2022-11-16T10:09:14.111Z,0.60
2022-11-16T10:13:42.763Z,1.10
2022-11-16T10:18:06.869Z,1.15
2022-11-16T10:22:17.891Z,1.05
2022-11-16T10:26:31.278Z,0.98
2022-11-16T10:30:41.965Z,0.75
2022-11-16T10:34:51.345Z,1.55
2022-11-16T10:38:54.396Z,1.15
2022-11-16T10:43:06.000Z,2.22
2022-11-16T10:47:34.931Z,1.10
2022-11-16T10:51:36.414Z,1.25
2022-11-16T10:55:37.904Z,0.88
2022-11-16T10:59:50.212Z,1.10
2022-11-16T11:03:51.686Z,1.02
2022-11-16T11:08:07.537Z,0.90
2022-11-16T11:12:31.046Z,1.00
2022-11-16T11:16:32.793Z,0.98
2022-11-16T11:20:34.282Z,1.48
2022-11-16T11:24:44.898Z,0.90
2022-11-16T11:28:48.173Z,0.90
2022-11-16T11:32:50.656Z,0.70
2022-11-16T11:37:01.239Z,0.80
2022-11-16T11:41:05.328Z,0.82
2022-11-16T11:45:09.469Z,0.68
2022-11-16T11:49:17.180Z,0.65
2022-11-16T11:53:33.953Z,1.20
2022-11-16T11:57:40.331Z,0.63
2022-11-16T12:02:00.083Z,0.60
2022-11-16T12:06:08.628Z,0.90
2022-11-16T12:10:36.172Z,0.80
2022-11-16T12:14:49.661Z,0.70
2022-11-16T12:19:00.518Z,0.80
2022-11-16T12:23:10.905Z,0.80
2022-11-16T12:28:09.552Z,0.80
2022-11-16T12:32:29.172Z,0.80
2022-11-16T12:36:49.453Z,0.50
2022-11-16T12:41:24.920Z,0.68
2022-11-16T12:45:32.792Z,0.68
2022-11-16T12:49:52.656Z,0.70
2022-11-16T12:54:10.053Z,0.70
2022-11-16T12:58:22.534Z,0.80
2022-11-16T13:02:52.494Z,0.60
2022-11-16T13:07:05.324Z,0.50
2022-11-16T13:11:32.311Z,0.68
2022-11-16T13:15:37.300Z,0.75
2022-11-16T13:19:40.209Z,0.70
2022-11-16T13:23:53.382Z,0.68
2022-11-16T13:28:13.399Z,0.63
2022-11-16T13:32:28.246Z,0.93
2022-11-16T13:36:32.701Z,1.00
2022-11-16T13:40:34.640Z,1.08
2022-11-16T13:44:36.174Z,0.70
2022-11-16T13:48:38.626Z,0.57
2022-11-16T13:53:46.355Z,0.95
2022-11-16T13:57:32.991Z,0.55
2022-11-16T14:01:57.701Z,0.68
2022-11-16T14:05:59.217Z,0.88
2022-11-16T14:10:01.431Z,0.90
2022-11-16T14:14:13.739Z,0.65
2022-11-16T14:18:15.275Z,0.60
2022-11-16T14:22:31.752Z,0.68
2022-11-16T14:26:56.383Z,0.68
2022-11-16T14:31:20.036Z,0.63
2022-11-16T14:35:27.576Z,0.98
2022-11-16T14:39:32.070Z,0.85
2022-11-16T14:43:46.541Z,1.15
2022-11-16T14:47:48.717Z,1.25
2022-11-16T14:51:54.035Z,1.40
2022-11-16T14:56:06.880Z,1.20
2022-11-16T15:00:25.852Z,1.40
2022-11-16T15:04:27.719Z,1.33
2022-11-16T15:08:42.317Z,1.25
2022-11-16T15:12:46.252Z,1.33
2022-11-16T15:17:07.258Z,1.67
2022-11-16T15:21:22.557Z,1.80
2022-11-16T15:25:30.686Z,1.55
2022-11-16T15:29:32.438Z,1.20
2022-11-16T15:33:41.951Z,1.52
2022-11-16T15:37:43.446Z,1.33
2022-11-16T15:41:46.211Z,1.67
2022-11-16T15:45:48.686Z,0.95
2022-11-16T15:49:53.163Z,1.50
2022-11-16T15:54:13.953Z,1.30
2022-11-16T15:58:29.622Z,1.15
2022-11-16T16:02:31.849Z,1.13
2022-11-16T16:06:45.598Z,1.30
2022-11-16T16:11:20.355Z,1.55
2022-11-16T16:15:33.942Z,2.00
2022-11-16T16:19:43.632Z,2.58
2022-11-16T16:23:53.810Z,2.38
2022-11-16T16:27:55.725Z,3.38
2022-11-16T16:31:57.335Z,4.43
2022-11-16T16:35:58.940Z,7.82
2022-11-16T16:40:00.596Z,7.40
2022-11-16T16:44:02.119Z,6.20
2022-11-16T16:48:03.895Z,4.93
2022-11-16T16:52:06.781Z,3.50
2022-11-16T16:56:15.725Z,3.20
2022-11-16T17:00:20.078Z,3.72
2022-11-16T17:04:21.814Z,3.05
2022-11-16T17:08:23.249Z,3.08
2022-11-16T17:12:25.058Z,3.00
2022-11-16T17:16:26.621Z,2.17
2022-11-16T17:20:28.325Z,2.60
2022-11-16T17:24:29.916Z,2.20
2022-11-16T17:28:31.777Z,2.80
2022-11-16T17:32:33.319Z,5.95
2022-11-16T17:36:34.807Z,5.85
2022-11-16T17:40:36.776Z,5.95
2022-11-16T17:44:38.370Z,7.47
2022-11-16T17:48:43.359Z,6.65
2022-11-16T17:52:44.817Z,6.03
2022-11-16T17:56:46.210Z,4.93
2022-11-16T18:00:51.802Z,4.78
2022-11-16T18:04:53.504Z,3.97
2022-11-16T18:08:54.942Z,4.35
2022-11-16T18:12:56.696Z,3.58
2022-11-16T18:16:58.211Z,2.63
2022-11-16T18:21:02.865Z,2.78
2022-11-16T18:25:04.594Z,2.40
2022-11-16T18:29:07.230Z,2.85
2022-11-16T18:33:08.775Z,3.50
2022-11-16T18:37:10.539Z,4.05
2022-11-16T18:41:11.962Z,4.32
2022-11-16T18:45:14.039Z,3.90
2022-11-16T18:49:15.965Z,3.42
2022-11-16T18:53:17.964Z,3.17
2022-11-16T18:57:19.838Z,4.63
2022-11-16T19:01:24.169Z,4.25
2022-11-16T19:05:25.797Z,4.43
2022-11-16T19:09:27.886Z,4.43
2022-11-16T19:13:29.450Z,5.63
2022-11-16T19:17:31.351Z,5.72
2022-11-16T19:21:32.875Z,5.07
2022-11-16T19:25:34.359Z,6.65
2022-11-16T19:29:36.856Z,6.35
2022-11-16T19:33:39.056Z,5.40
2022-11-16T19:37:40.870Z,5.97
2022-11-16T19:41:49.342Z,6.70
2022-11-16T19:45:51.208Z,7.28
2022-11-16T19:49:53.349Z,5.93
2022-11-16T19:53:56.807Z,5.60
2022-11-16T19:57:58.220Z,5.18
2022-11-16T20:01:59.685Z,5.28
2022-11-16T20:06:15.890Z,5.07
2022-11-16T20:10:17.733Z,8.05
2022-11-16T20:14:19.459Z,10.40
2022-11-16T20:18:20.972Z,7.70
2022-11-16T20:22:22.438Z,8.50
2022-11-16T20:26:25.705Z,10.55
2022-11-16T20:30:27.423Z,12.15
2022-11-16T20:34:29.139Z,10.32
2022-11-16T20:38:33.100Z,8.88
2022-11-16T20:42:36.327Z,8.45
2022-11-16T20:46:38.456Z,8.45
2022-11-16T20:50:39.946Z,7.95
2022-11-16T20:54:41.393Z,5.57
2022-11-16T20:58:43.163Z,5.45
2022-11-16T21:02:44.797Z,5.43
2022-11-16T21:06:47.284Z,6.65
2022-11-16T21:10:48.976Z,8.07
2022-11-16T21:14:50.744Z,9.40
2022-11-16T21:18:54.461Z,6.30
2022-11-16T21:22:55.978Z,5.50
2022-11-16T21:26:57.405Z,5.63
2022-11-16T21:31:00.885Z,5.25
2022-11-16T21:35:02.816Z,5.45
2022-11-16T21:39:04.409Z,6.57
2022-11-16T21:43:05.985Z,5.93
2022-11-16T21:47:09.250Z,6.57
2022-11-16T21:51:16.276Z,5.82
2022-11-16T21:55:17.713Z,4.72
2022-11-16T21:59:19.089Z,4.40
2022-11-16T22:03:20.715Z,6.72
2022-11-16T22:07:36.797Z,5.05
2022-11-16T22:11:38.343Z,11.65
2022-11-16T22:15:39.986Z,6.20
2022-11-16T22:19:41.378Z,5.97
2022-11-16T22:23:42.876Z,6.38
2022-11-16T22:28:13.756Z,5.30
2022-11-16T22:32:09.445Z,5.95
2022-11-16T22:36:11.129Z,5.53
2022-11-16T22:40:17.621Z,4.60
2022-11-16T22:44:19.427Z,5.10
2022-11-16T22:48:20.803Z,5.55
2022-11-16T22:52:22.393Z,5.90
2022-11-16T22:56:24.874Z,6.00
2022-11-16T23:00:26.512Z,4.68
2022-11-16T23:04:28.376Z,5.63
2022-11-16T23:08:30.202Z,5.38
2022-11-16T23:12:50.213Z,5.10
2022-11-16T23:16:52.412Z,4.70
2022-11-16T23:21:13.585Z,4.47
2022-11-16T23:25:33.890Z,4.75
2022-11-16T23:29:35.509Z,4.03
2022-11-16T23:33:46.104Z,6.22
2022-11-16T23:37:55.396Z,6.30
2022-11-16T23:42:15.411Z,7.68
2022-11-16T23:46:16.886Z,8.65
2022-11-16T23:50:18.380Z,7.40
2022-11-16T23:54:19.889Z,6.78
2022-11-16T23:58:21.675Z,6.88
